sensor_id;sensor_type;location;lat;lon;timestamp;temperature;humidity
15364;DHT22;7781;49.690;6.472;2023-11-18T00:01:37;5.10;99.90
15364;DHT22;7781;49.690;6.472;2023-11-18T00:04:08;5.10;99.90
15364;DHT22;7781;49.690;6.472;2023-11-18T00:06:43;5.10;99.90
15364;DHT22;7781;49.690;6.472;2023-11-18T00:09:13;5.10;99.90
15364;DHT22;7781;49.690;6.472;2023-11-18T00:11:43;5.10;99.90
15364;DHT22;7781;49.690;6.472;2023-11-18T00:14:12;5.10;99.90
15364;DHT22;7781;49.690;6.472;2023-11-18T00:16:42;5.10;99.90
15364;DHT22;7781;49.690;6.472;2023-11-18T00:19:12;5.10;99.90
15364;DHT22;7781;49.690;6.472;2023-11-18T00:21:41;5.10;99.90
15364;DHT22;7781;49.690;6.472;2023-11-18T00:24:09;5.20;99.90
15364;DHT22;7781;49.690;6.472;2023-11-18T00:26:38;5.20;99.90
15364;DHT22;7781;49.690;6.472;2023-11-18T00:29:10;5.20;99.90
15364;DHT22;7781;49.690;6.472;2023-11-18T00:31:39;5.20;99.90
15364;DHT22;7781;49.690;6.472;2023-11-18T00:34:08;5.20;99.90
15364;DHT22;7781;49.690;6.472;2023-11-18T00:36:38;5.20;99.90
15364;DHT22;7781;49.690;6.472;2023-11-18T00:39:07;5.20;99.90
15364;DHT22;7781;49.690;6.472;2023-11-18T00:41:36;5.20;99.90
15364;DHT22;7781;49.690;6.472;2023-11-18T00:44:05;5.20;99.90
15364;DHT22;7781;49.690;6.472;2023-11-18T00:46:36;5.20;99.90
15364;DHT22;7781;49.690;6.472;2023-11-18T00:49:04;5.10;99.90
15364;DHT22;7781;49.690;6.472;2023-11-18T00:51:35;5.10;99.90
15364;DHT22;7781;49.690;6.472;2023-11-18T00:54:04;5.10;99.90
15364;DHT22;7781;49.690;6.472;2023-11-18T00:56:33;5.00;99.90
15364;DHT22;7781;49.690;6.472;2023-11-18T00:59:02;5.00;99.90
15364;DHT22;7781;49.690;6.472;2023-11-18T01:01:31;5.00;99.90
15364;DHT22;7781;49.690;6.472;2023-11-18T01:04:01;4.90;99.90
15364;DHT22;7781;49.690;6.472;2023-11-18T01:06:30;4.90;99.90
15364;DHT22;7781;49.690;6.472;2023-11-18T01:09:01;4.90;99.90
15364;DHT22;7781;49.690;6.472;2023-11-18T01:11:31;4.90;99.90
15364;DHT22;7781;49.690;6.472;2023-11-18T01:13:59;4.90;99.90
15364;DHT22;7781;49.690;6.472;2023-11-18T01:16:29;4.90;99.90
15364;DHT22;7781;49.690;6.472;2023-11-18T01:18:57;4.90;99.90
15364;DHT22;7781;49.690;6.472;2023-11-18T01:21:28;4.90;99.90
15364;DHT22;7781;49.690;6.472;2023-11-18T01:23:58;4.90;99.90
15364;DHT22;7781;49.690;6.472;2023-11-18T01:26:27;4.90;99.90
15364;DHT22;7781;49.690;6.472;2023-11-18T01:28:56;5.00;99.90
15364;DHT22;7781;49.690;6.472;2023-11-18T01:31:25;4.90;99.90
15364;DHT22;7781;49.690;6.472;2023-11-18T01:34:02;4.90;99.90
15364;DHT22;7781;49.690;6.472;2023-11-18T01:36:33;4.90;99.90
15364;DHT22;7781;49.690;6.472;2023-11-18T01:39:02;4.90;99.90
15364;DHT22;7781;49.690;6.472;2023-11-18T01:41:31;4.90;99.90
15364;DHT22;7781;49.690;6.472;2023-11-18T01:44:00;4.90;99.90
15364;DHT22;7781;49.690;6.472;2023-11-18T01:46:31;5.10;99.90
15364;DHT22;7781;49.690;6.472;2023-11-18T01:49:01;5.10;99.90
15364;DHT22;7781;49.690;6.472;2023-11-18T01:51:30;5.00;99.90
15364;DHT22;7781;49.690;6.472;2023-11-18T01:54:03;5.00;99.90
15364;DHT22;7781;49.690;6.472;2023-11-18T01:56:33;5.00;99.90
15364;DHT22;7781;49.690;6.472;2023-11-18T01:59:02;5.00;99.90
15364;DHT22;7781;49.690;6.472;2023-11-18T02:01:32;5.00;99.90
15364;DHT22;7781;49.690;6.472;2023-11-18T02:04:04;5.00;99.90
15364;DHT22;7781;49.690;6.472;2023-11-18T02:06:35;5.00;99.90
15364;DHT22;7781;49.690;6.472;2023-11-18T02:09:05;5.10;99.90
15364;DHT22;7781;49.690;6.472;2023-11-18T02:11:37;5.10;99.90
15364;DHT22;7781;49.690;6.472;2023-11-18T02:14:13;5.10;99.90
15364;DHT22;7781;49.690;6.472;2023-11-18T02:16:44;5.10;99.90
15364;DHT22;7781;49.690;6.472;2023-11-18T02:19:20;5.10;99.90
15364;DHT22;7781;49.690;6.472;2023-11-18T02:21:50;5.10;99.90
15364;DHT22;7781;49.690;6.472;2023-11-18T02:24:30;5.20;99.90
15364;DHT22;7781;49.690;6.472;2023-11-18T02:27:06;5.20;99.90
15364;DHT22;7781;49.690;6.472;2023-11-18T02:29:36;5.20;99.90
15364;DHT22;7781;49.690;6.472;2023-11-18T02:32:11;5.20;99.90
15364;DHT22;7781;49.690;6.472;2023-11-18T02:34:46;5.20;99.90
15364;DHT22;7781;49.690;6.472;2023-11-18T02:37:18;5.20;99.90
15364;DHT22;7781;49.690;6.472;2023-11-18T02:39:51;5.30;99.90
15364;DHT22;7781;49.690;6.472;2023-11-18T02:42:24;5.30;99.90
15364;DHT22;7781;49.690;6.472;2023-11-18T02:44:53;5.30;99.90
15364;DHT22;7781;49.690;6.472;2023-11-18T02:47:27;5.30;99.90
15364;DHT22;7781;49.690;6.472;2023-11-18T02:49:56;5.30;99.90
15364;DHT22;7781;49.690;6.472;2023-11-18T02:52:32;5.30;99.90
15364;DHT22;7781;49.690;6.472;2023-11-18T02:55:01;5.30;99.90
15364;DHT22;7781;49.690;6.472;2023-11-18T02:57:31;5.30;99.90
15364;DHT22;7781;49.690;6.472;2023-11-18T03:00:00;5.30;99.90
15364;DHT22;7781;49.690;6.472;2023-11-18T03:02:29;5.30;99.90
15364;DHT22;7781;49.690;6.472;2023-11-18T03:04:59;5.40;99.90
15364;DHT22;7781;49.690;6.472;2023-11-18T03:07:27;5.40;99.90
15364;DHT22;7781;49.690;6.472;2023-11-18T03:09:56;5.40;99.90
15364;DHT22;7781;49.690;6.472;2023-11-18T03:12:25;5.40;99.90
15364;DHT22;7781;49.690;6.472;2023-11-18T03:14:57;5.40;99.90
15364;DHT22;7781;49.690;6.472;2023-11-18T03:17:25;5.50;99.90
15364;DHT22;7781;49.690;6.472;2023-11-18T03:19:55;5.50;99.90
15364;DHT22;7781;49.690;6.472;2023-11-18T03:22:24;5.50;99.90
15364;DHT22;7781;49.690;6.472;2023-11-18T03:24:53;5.50;99.90
15364;DHT22;7781;49.690;6.472;2023-11-18T03:27:23;5.50;99.90
15364;DHT22;7781;49.690;6.472;2023-11-18T03:29:51;5.50;99.90
15364;DHT22;7781;49.690;6.472;2023-11-18T03:32:22;5.50;99.90
15364;DHT22;7781;49.690;6.472;2023-11-18T03:34:51;5.60;99.90
15364;DHT22;7781;49.690;6.472;2023-11-18T03:37:20;5.60;99.90
15364;DHT22;7781;49.690;6.472;2023-11-18T03:39:50;5.50;99.90
15364;DHT22;7781;49.690;6.472;2023-11-18T03:42:18;5.60;99.90
15364;DHT22;7781;49.690;6.472;2023-11-18T03:44:49;5.60;99.90
15364;DHT22;7781;49.690;6.472;2023-11-18T03:47:17;5.60;99.90
15364;DHT22;7781;49.690;6.472;2023-11-18T03:49:47;5.60;99.90
15364;DHT22;7781;49.690;6.472;2023-11-18T03:52:16;5.60;99.90
15364;DHT22;7781;49.690;6.472;2023-11-18T03:54:46;5.60;99.90
15364;DHT22;7781;49.690;6.472;2023-11-18T03:57:14;5.60;99.90
15364;DHT22;7781;49.690;6.472;2023-11-18T03:59:42;5.70;99.90
15364;DHT22;7781;49.690;6.472;2023-11-18T04:02:11;5.70;99.90
15364;DHT22;7781;49.690;6.472;2023-11-18T04:04:39;5.70;99.90
15364;DHT22;7781;49.690;6.472;2023-11-18T04:07:10;5.70;99.90
15364;DHT22;7781;49.690;6.472;2023-11-18T04:09:38;5.70;99.90
15364;DHT22;7781;49.690;6.472;2023-11-18T04:12:08;5.70;99.90
15364;DHT22;7781;49.690;6.472;2023-11-18T04:14:37;5.70;99.90
15364;DHT22;7781;49.690;6.472;2023-11-18T04:17:06;5.70;99.90
15364;DHT22;7781;49.690;6.472;2023-11-18T04:19:35;5.70;99.90
15364;DHT22;7781;49.690;6.472;2023-11-18T04:22:04;5.70;99.90
15364;DHT22;7781;49.690;6.472;2023-11-18T04:24:35;5.80;99.90
15364;DHT22;7781;49.690;6.472;2023-11-18T04:27:03;5.70;99.90
15364;DHT22;7781;49.690;6.472;2023-11-18T04:29:31;5.80;99.90
15364;DHT22;7781;49.690;6.472;2023-11-18T04:32:03;5.70;99.90
15364;DHT22;7781;49.690;6.472;2023-11-18T04:34:35;5.70;99.90
15364;DHT22;7781;49.690;6.472;2023-11-18T04:37:04;5.70;99.90
15364;DHT22;7781;49.690;6.472;2023-11-18T04:39:34;5.70;99.90
15364;DHT22;7781;49.690;6.472;2023-11-18T04:42:04;5.70;99.90
15364;DHT22;7781;49.690;6.472;2023-11-18T04:44:33;5.70;99.90
15364;DHT22;7781;49.690;6.472;2023-11-18T04:47:02;5.70;99.90
15364;DHT22;7781;49.690;6.472;2023-11-18T04:49:31;5.70;99.90
15364;DHT22;7781;49.690;6.472;2023-11-18T04:52:00;5.60;99.90
15364;DHT22;7781;49.690;6.472;2023-11-18T04:54:28;5.60;99.90
15364;DHT22;7781;49.690;6.472;2023-11-18T04:56:58;5.60;99.90
15364;DHT22;7781;49.690;6.472;2023-11-18T04:59:27;5.60;99.90
15364;DHT22;7781;49.690;6.472;2023-11-18T05:01:59;5.60;99.90
15364;DHT22;7781;49.690;6.472;2023-11-18T05:04:30;5.60;99.90
15364;DHT22;7781;49.690;6.472;2023-11-18T05:06:58;5.60;99.90
15364;DHT22;7781;49.690;6.472;2023-11-18T05:09:26;5.60;99.90
15364;DHT22;7781;49.690;6.472;2023-11-18T05:11:55;5.60;99.90
15364;DHT22;7781;49.690;6.472;2023-11-18T05:14:25;5.60;99.90
15364;DHT22;7781;49.690;6.472;2023-11-18T05:16:53;5.60;99.90
15364;DHT22;7781;49.690;6.472;2023-11-18T05:19:22;5.60;99.90
15364;DHT22;7781;49.690;6.472;2023-11-18T05:21:50;5.60;99.90
15364;DHT22;7781;49.690;6.472;2023-11-18T05:24:19;5.60;99.90
15364;DHT22;7781;49.690;6.472;2023-11-18T05:26:47;5.70;99.90
15364;DHT22;7781;49.690;6.472;2023-11-18T05:29:16;5.70;99.90
15364;DHT22;7781;49.690;6.472;2023-11-18T05:31:46;5.70;99.90
15364;DHT22;7781;49.690;6.472;2023-11-18T05:34:15;5.70;99.90
15364;DHT22;7781;49.690;6.472;2023-11-18T05:36:46;5.70;99.90
15364;DHT22;7781;49.690;6.472;2023-11-18T05:39:18;5.70;99.90
15364;DHT22;7781;49.690;6.472;2023-11-18T05:41:47;5.70;99.90
15364;DHT22;7781;49.690;6.472;2023-11-18T05:44:17;5.70;99.90
15364;DHT22;7781;49.690;6.472;2023-11-18T05:46:48;5.80;99.90
15364;DHT22;7781;49.690;6.472;2023-11-18T05:49:18;5.80;99.90
15364;DHT22;7781;49.690;6.472;2023-11-18T05:51:50;5.80;99.90
15364;DHT22;7781;49.690;6.472;2023-11-18T05:54:18;5.90;99.90
15364;DHT22;7781;49.690;6.472;2023-11-18T05:56:47;5.90;99.90
15364;DHT22;7781;49.690;6.472;2023-11-18T05:59:15;5.90;99.90
15364;DHT22;7781;49.690;6.472;2023-11-18T06:01:44;5.90;99.90
15364;DHT22;7781;49.690;6.472;2023-11-18T06:04:17;5.90;99.90
15364;DHT22;7781;49.690;6.472;2023-11-18T06:06:47;5.90;99.90
15364;DHT22;7781;49.690;6.472;2023-11-18T06:09:17;5.90;99.90
15364;DHT22;7781;49.690;6.472;2023-11-18T06:11:48;5.90;99.90
15364;DHT22;7781;49.690;6.472;2023-11-18T06:14:18;5.90;99.90
15364;DHT22;7781;49.690;6.472;2023-11-18T06:16:48;5.90;99.90
15364;DHT22;7781;49.690;6.472;2023-11-18T06:19:20;5.90;99.90
15364;DHT22;7781;49.690;6.472;2023-11-18T06:21:50;5.80;99.90
15364;DHT22;7781;49.690;6.472;2023-11-18T06:24:19;5.80;99.90
15364;DHT22;7781;49.690;6.472;2023-11-18T06:26:49;5.80;99.90
15364;DHT22;7781;49.690;6.472;2023-11-18T06:29:19;5.80;99.90
15364;DHT22;7781;49.690;6.472;2023-11-18T06:31:50;5.90;99.90
15364;DHT22;7781;49.690;6.472;2023-11-18T06:34:21;5.90;99.90
15364;DHT22;7781;49.690;6.472;2023-11-18T06:36:50;5.90;99.90
15364;DHT22;7781;49.690;6.472;2023-11-18T06:39:20;5.90;99.90
15364;DHT22;7781;49.690;6.472;2023-11-18T06:41:56;5.90;99.90
15364;DHT22;7781;49.690;6.472;2023-11-18T06:44:26;5.90;99.90
15364;DHT22;7781;49.690;6.472;2023-11-18T06:46:56;6.00;99.90
15364;DHT22;7781;49.690;6.472;2023-11-18T06:49:29;6.00;99.90
15364;DHT22;7781;49.690;6.472;2023-11-18T06:52:02;6.00;99.90
15364;DHT22;7781;49.690;6.472;2023-11-18T06:54:32;6.00;99.90
15364;DHT22;7781;49.690;6.472;2023-11-18T06:57:01;6.10;99.90
15364;DHT22;7781;49.690;6.472;2023-11-18T06:59:30;6.10;99.90
15364;DHT22;7781;49.690;6.472;2023-11-18T07:02:00;6.10;99.90
15364;DHT22;7781;49.690;6.472;2023-11-18T07:04:34;6.00;99.90
15364;DHT22;7781;49.690;6.472;2023-11-18T07:07:06;6.10;99.90
15364;DHT22;7781;49.690;6.472;2023-11-18T07:09:36;6.10;99.90
15364;DHT22;7781;49.690;6.472;2023-11-18T07:12:07;6.10;99.90
15364;DHT22;7781;49.690;6.472;2023-11-18T07:14:36;6.10;99.90
15364;DHT22;7781;49.690;6.472;2023-11-18T07:17:05;6.20;99.90
15364;DHT22;7781;49.690;6.472;2023-11-18T07:19:38;6.10;99.90
15364;DHT22;7781;49.690;6.472;2023-11-18T07:22:08;6.10;99.90
15364;DHT22;7781;49.690;6.472;2023-11-18T07:24:37;6.10;99.90
15364;DHT22;7781;49.690;6.472;2023-11-18T07:27:07;6.10;99.90
15364;DHT22;7781;49.690;6.472;2023-11-18T07:29:39;6.10;99.90
15364;DHT22;7781;49.690;6.472;2023-11-18T07:32:09;6.10;99.90
15364;DHT22;7781;49.690;6.472;2023-11-18T07:34:41;6.10;99.90
15364;DHT22;7781;49.690;6.472;2023-11-18T07:37:10;6.20;99.90
15364;DHT22;7781;49.690;6.472;2023-11-18T07:39:40;6.20;99.90
15364;DHT22;7781;49.690;6.472;2023-11-18T07:42:13;6.10;99.90
15364;DHT22;7781;49.690;6.472;2023-11-18T07:44:54;6.20;99.90
15364;DHT22;7781;49.690;6.472;2023-11-18T07:47:24;6.20;99.90
15364;DHT22;7781;49.690;6.472;2023-11-18T07:49:55;6.20;99.90
15364;DHT22;7781;49.690;6.472;2023-11-18T07:52:25;6.20;99.90
15364;DHT22;7781;49.690;6.472;2023-11-18T07:54:55;6.20;99.90
15364;DHT22;7781;49.690;6.472;2023-11-18T07:57:25;6.30;99.90
15364;DHT22;7781;49.690;6.472;2023-11-18T07:59:54;6.30;99.90
15364;DHT22;7781;49.690;6.472;2023-11-18T08:02:23;6.30;99.90
15364;DHT22;7781;49.690;6.472;2023-11-18T08:04:56;6.30;99.90
15364;DHT22;7781;49.690;6.472;2023-11-18T08:07:25;6.30;99.90
15364;DHT22;7781;49.690;6.472;2023-11-18T08:09:54;6.30;99.90
15364;DHT22;7781;49.690;6.472;2023-11-18T08:12:25;6.30;99.90
15364;DHT22;7781;49.690;6.472;2023-11-18T08:14:54;6.40;99.90
15364;DHT22;7781;49.690;6.472;2023-11-18T08:17:24;6.40;99.90
15364;DHT22;7781;49.690;6.472;2023-11-18T08:19:55;6.40;99.90
15364;DHT22;7781;49.690;6.472;2023-11-18T08:22:25;6.50;99.90
15364;DHT22;7781;49.690;6.472;2023-11-18T08:24:55;6.50;99.90
15364;DHT22;7781;49.690;6.472;2023-11-18T08:27:25;6.60;99.90
15364;DHT22;7781;49.690;6.472;2023-11-18T08:29:54;6.50;99.90
15364;DHT22;7781;49.690;6.472;2023-11-18T08:32:23;6.60;99.90
15364;DHT22;7781;49.690;6.472;2023-11-18T08:34:52;6.60;99.90
15364;DHT22;7781;49.690;6.472;2023-11-18T08:37:23;6.70;99.90
15364;DHT22;7781;49.690;6.472;2023-11-18T08:39:53;6.70;99.90
15364;DHT22;7781;49.690;6.472;2023-11-18T08:42:22;6.70;99.90
15364;DHT22;7781;49.690;6.472;2023-11-18T08:44:52;6.60;99.90
15364;DHT22;7781;49.690;6.472;2023-11-18T08:47:23;6.60;99.90
15364;DHT22;7781;49.690;6.472;2023-11-18T08:49:53;6.60;99.90
15364;DHT22;7781;49.690;6.472;2023-11-18T08:52:25;6.60;99.90
15364;DHT22;7781;49.690;6.472;2023-11-18T08:54:53;6.70;99.90
15364;DHT22;7781;49.690;6.472;2023-11-18T08:57:37;6.70;99.90
15364;DHT22;7781;49.690;6.472;2023-11-18T09:00:21;6.70;99.90
15364;DHT22;7781;49.690;6.472;2023-11-18T09:03:05;6.70;99.90
15364;DHT22;7781;49.690;6.472;2023-11-18T09:05:35;6.70;99.90
15364;DHT22;7781;49.690;6.472;2023-11-18T09:08:06;6.70;99.90
15364;DHT22;7781;49.690;6.472;2023-11-18T09:10:36;6.80;99.90
15364;DHT22;7781;49.690;6.472;2023-11-18T09:13:05;6.70;99.90
15364;DHT22;7781;49.690;6.472;2023-11-18T09:15:33;6.70;99.90
15364;DHT22;7781;49.690;6.472;2023-11-18T09:18:04;6.80;99.90
15364;DHT22;7781;49.690;6.472;2023-11-18T09:20:37;6.80;99.90
15364;DHT22;7781;49.690;6.472;2023-11-18T09:23:08;6.80;99.90
15364;DHT22;7781;49.690;6.472;2023-11-18T09:25:37;6.80;99.90
15364;DHT22;7781;49.690;6.472;2023-11-18T09:28:07;6.80;99.90
15364;DHT22;7781;49.690;6.472;2023-11-18T09:30:37;6.80;99.90
15364;DHT22;7781;49.690;6.472;2023-11-18T09:33:17;6.80;99.90
15364;DHT22;7781;49.690;6.472;2023-11-18T09:35:53;6.80;99.90
15364;DHT22;7781;49.690;6.472;2023-11-18T09:38:28;6.80;99.90
15364;DHT22;7781;49.690;6.472;2023-11-18T09:40:57;6.80;99.90
15364;DHT22;7781;49.690;6.472;2023-11-18T09:43:30;6.90;99.90
15364;DHT22;7781;49.690;6.472;2023-11-18T09:46:05;6.90;99.90
15364;DHT22;7781;49.690;6.472;2023-11-18T09:48:43;6.90;99.90
15364;DHT22;7781;49.690;6.472;2023-11-18T09:51:20;6.90;99.90
15364;DHT22;7781;49.690;6.472;2023-11-18T09:53:52;6.90;99.90
15364;DHT22;7781;49.690;6.472;2023-11-18T09:56:31;6.90;99.90
15364;DHT22;7781;49.690;6.472;2023-11-18T09:59:11;6.90;99.90
15364;DHT22;7781;49.690;6.472;2023-11-18T10:01:44;6.90;99.90
15364;DHT22;7781;49.690;6.472;2023-11-18T10:04:14;7.00;99.90
15364;DHT22;7781;49.690;6.472;2023-11-18T10:06:47;7.00;99.90
15364;DHT22;7781;49.690;6.472;2023-11-18T10:09:21;7.00;99.90
15364;DHT22;7781;49.690;6.472;2023-11-18T10:11:55;7.00;99.90
15364;DHT22;7781;49.690;6.472;2023-11-18T10:14:33;7.10;99.90
15364;DHT22;7781;49.690;6.472;2023-11-18T10:17:06;7.10;99.90
15364;DHT22;7781;49.690;6.472;2023-11-18T10:19:51;7.10;99.90
15364;DHT22;7781;49.690;6.472;2023-11-18T10:22:24;7.10;99.90
15364;DHT22;7781;49.690;6.472;2023-11-18T10:24:57;7.10;99.90
15364;DHT22;7781;49.690;6.472;2023-11-18T10:27:29;7.10;99.90
15364;DHT22;7781;49.690;6.472;2023-11-18T10:30:02;7.10;99.90
15364;DHT22;7781;49.690;6.472;2023-11-18T10:32:32;7.10;99.90
15364;DHT22;7781;49.690;6.472;2023-11-18T10:35:04;7.10;99.90
15364;DHT22;7781;49.690;6.472;2023-11-18T10:37:35;7.10;99.90
15364;DHT22;7781;49.690;6.472;2023-11-18T10:40:14;7.10;99.90
15364;DHT22;7781;49.690;6.472;2023-11-18T10:42:45;7.10;99.90
15364;DHT22;7781;49.690;6.472;2023-11-18T10:45:23;7.20;99.90
15364;DHT22;7781;49.690;6.472;2023-11-18T10:47:54;7.10;99.90
15364;DHT22;7781;49.690;6.472;2023-11-18T10:50:25;7.20;99.90
15364;DHT22;7781;49.690;6.472;2023-11-18T10:53:00;7.20;99.90
15364;DHT22;7781;49.690;6.472;2023-11-18T10:55:48;7.30;99.90
15364;DHT22;7781;49.690;6.472;2023-11-18T10:58:17;7.30;99.90
15364;DHT22;7781;49.690;6.472;2023-11-18T11:00:48;7.30;99.90
15364;DHT22;7781;49.690;6.472;2023-11-18T11:03:18;7.30;99.90
15364;DHT22;7781;49.690;6.472;2023-11-18T11:05:47;7.30;99.90
15364;DHT22;7781;49.690;6.472;2023-11-18T11:08:17;7.30;99.90
15364;DHT22;7781;49.690;6.472;2023-11-18T11:11:03;7.30;99.90
15364;DHT22;7781;49.690;6.472;2023-11-18T11:13:35;7.40;99.90
15364;DHT22;7781;49.690;6.472;2023-11-18T11:16:08;7.40;99.90
15364;DHT22;7781;49.690;6.472;2023-11-18T11:18:44;7.40;99.90
15364;DHT22;7781;49.690;6.472;2023-11-18T11:21:24;7.50;99.90
15364;DHT22;7781;49.690;6.472;2023-11-18T11:24:02;7.50;99.90
15364;DHT22;7781;49.690;6.472;2023-11-18T11:26:46;7.60;99.90
15364;DHT22;7781;49.690;6.472;2023-11-18T11:29:25;7.60;99.90
15364;DHT22;7781;49.690;6.472;2023-11-18T11:32:09;7.60;99.90
15364;DHT22;7781;49.690;6.472;2023-11-18T11:34:48;7.60;99.90
15364;DHT22;7781;49.690;6.472;2023-11-18T11:37:23;7.60;99.90
15364;DHT22;7781;49.690;6.472;2023-11-18T11:39:53;7.70;99.90
15364;DHT22;7781;49.690;6.472;2023-11-18T11:42:28;7.70;99.90
15364;DHT22;7781;49.690;6.472;2023-11-18T11:44:56;7.70;99.90
15364;DHT22;7781;49.690;6.472;2023-11-18T11:47:26;7.70;99.90
15364;DHT22;7781;49.690;6.472;2023-11-18T11:50:03;7.70;99.90
15364;DHT22;7781;49.690;6.472;2023-11-18T11:52:43;7.70;99.90
15364;DHT22;7781;49.690;6.472;2023-11-18T11:55:21;7.70;99.90
15364;DHT22;7781;49.690;6.472;2023-11-18T11:57:55;7.80;99.90
15364;DHT22;7781;49.690;6.472;2023-11-18T12:00:25;7.80;99.90
15364;DHT22;7781;49.690;6.472;2023-11-18T12:03:02;7.80;99.90
15364;DHT22;7781;49.690;6.472;2023-11-18T12:05:32;7.70;99.90
15364;DHT22;7781;49.690;6.472;2023-11-18T12:08:02;7.70;99.90
15364;DHT22;7781;49.690;6.472;2023-11-18T12:10:36;7.70;99.90
15364;DHT22;7781;49.690;6.472;2023-11-18T12:13:10;7.70;99.90
15364;DHT22;7781;49.690;6.472;2023-11-18T12:15:54;7.70;99.90
15364;DHT22;7781;49.690;6.472;2023-11-18T12:18:25;7.80;99.90
15364;DHT22;7781;49.690;6.472;2023-11-18T12:20:54;7.80;99.90
15364;DHT22;7781;49.690;6.472;2023-11-18T12:23:25;7.80;99.90
15364;DHT22;7781;49.690;6.472;2023-11-18T12:25:54;7.80;99.90
15364;DHT22;7781;49.690;6.472;2023-11-18T12:28:29;7.80;99.90
15364;DHT22;7781;49.690;6.472;2023-11-18T12:31:03;7.80;99.90
15364;DHT22;7781;49.690;6.472;2023-11-18T12:34:03;7.80;99.90
15364;DHT22;7781;49.690;6.472;2023-11-18T12:40:32;7.80;99.90
15364;DHT22;7781;49.690;6.472;2023-11-18T12:43:10;7.90;99.90
15364;DHT22;7781;49.690;6.472;2023-11-18T12:46:10;7.90;99.90
15364;DHT22;7781;49.690;6.472;2023-11-18T12:48:44;7.90;99.90
15364;DHT22;7781;49.690;6.472;2023-11-18T12:51:16;8.00;99.90
15364;DHT22;7781;49.690;6.472;2023-11-18T12:53:48;8.00;99.90
15364;DHT22;7781;49.690;6.472;2023-11-18T12:56:22;8.00;99.90
15364;DHT22;7781;49.690;6.472;2023-11-18T12:58:52;8.00;99.90
15364;DHT22;7781;49.690;6.472;2023-11-18T13:01:23;8.00;99.90
15364;DHT22;7781;49.690;6.472;2023-11-18T13:03:56;8.00;99.90
15364;DHT22;7781;49.690;6.472;2023-11-18T13:06:25;8.00;99.90
15364;DHT22;7781;49.690;6.472;2023-11-18T13:08:57;8.10;99.90
15364;DHT22;7781;49.690;6.472;2023-11-18T13:11:26;8.10;99.90
15364;DHT22;7781;49.690;6.472;2023-11-18T13:13:54;8.10;99.90
15364;DHT22;7781;49.690;6.472;2023-11-18T13:16:25;8.20;99.90
15364;DHT22;7781;49.690;6.472;2023-11-18T13:18:55;8.20;99.90
15364;DHT22;7781;49.690;6.472;2023-11-18T13:21:23;8.20;99.90
15364;DHT22;7781;49.690;6.472;2023-11-18T13:23:57;8.20;99.90
15364;DHT22;7781;49.690;6.472;2023-11-18T13:26:25;8.20;99.90
15364;DHT22;7781;49.690;6.472;2023-11-18T13:28:56;8.20;99.90
15364;DHT22;7781;49.690;6.472;2023-11-18T13:31:27;8.10;99.90
15364;DHT22;7781;49.690;6.472;2023-11-18T13:33:55;8.10;99.90
15364;DHT22;7781;49.690;6.472;2023-11-18T13:36:25;8.10;99.90
15364;DHT22;7781;49.690;6.472;2023-11-18T13:38:54;8.10;99.90
15364;DHT22;7781;49.690;6.472;2023-11-18T13:41:29;8.10;99.90
15364;DHT22;7781;49.690;6.472;2023-11-18T13:44:00;8.10;99.90
15364;DHT22;7781;49.690;6.472;2023-11-18T13:46:31;8.10;99.90
15364;DHT22;7781;49.690;6.472;2023-11-18T13:49:00;8.00;99.90
15364;DHT22;7781;49.690;6.472;2023-11-18T13:51:30;8.00;99.90
15364;DHT22;7781;49.690;6.472;2023-11-18T13:54:00;8.00;99.90
15364;DHT22;7781;49.690;6.472;2023-11-18T13:56:29;8.00;99.90
15364;DHT22;7781;49.690;6.472;2023-11-18T13:58:58;8.00;99.90
15364;DHT22;7781;49.690;6.472;2023-11-18T14:01:28;8.00;99.90
15364;DHT22;7781;49.690;6.472;2023-11-18T14:03:59;8.00;99.90
15364;DHT22;7781;49.690;6.472;2023-11-18T14:06:31;8.00;99.90
15364;DHT22;7781;49.690;6.472;2023-11-18T14:09:01;8.00;99.90
15364;DHT22;7781;49.690;6.472;2023-11-18T14:11:31;8.00;99.90
15364;DHT22;7781;49.690;6.472;2023-11-18T14:14:01;8.00;99.90
15364;DHT22;7781;49.690;6.472;2023-11-18T14:16:30;8.00;99.90
15364;DHT22;7781;49.690;6.472;2023-11-18T14:19:00;8.00;99.90
15364;DHT22;7781;49.690;6.472;2023-11-18T14:21:29;8.00;99.90
15364;DHT22;7781;49.690;6.472;2023-11-18T14:23:59;8.00;99.90
15364;DHT22;7781;49.690;6.472;2023-11-18T14:26:30;8.00;99.90
15364;DHT22;7781;49.690;6.472;2023-11-18T14:29:00;8.00;99.90
15364;DHT22;7781;49.690;6.472;2023-11-18T14:31:29;8.00;99.90
15364;DHT22;7781;49.690;6.472;2023-11-18T14:33:59;8.00;99.90
15364;DHT22;7781;49.690;6.472;2023-11-18T14:36:28;8.00;99.90
15364;DHT22;7781;49.690;6.472;2023-11-18T14:38:57;8.00;99.90
15364;DHT22;7781;49.690;6.472;2023-11-18T14:41:26;8.10;99.90
15364;DHT22;7781;49.690;6.472;2023-11-18T14:43:58;8.00;99.90
15364;DHT22;7781;49.690;6.472;2023-11-18T14:46:28;8.00;99.90
15364;DHT22;7781;49.690;6.472;2023-11-18T14:49:02;8.00;99.90
15364;DHT22;7781;49.690;6.472;2023-11-18T14:51:33;8.00;99.90
15364;DHT22;7781;49.690;6.472;2023-11-18T14:54:03;8.00;99.90
15364;DHT22;7781;49.690;6.472;2023-11-18T14:56:33;8.00;99.90
15364;DHT22;7781;49.690;6.472;2023-11-18T14:59:03;8.00;99.90
15364;DHT22;7781;49.690;6.472;2023-11-18T15:01:33;8.00;99.90
15364;DHT22;7781;49.690;6.472;2023-11-18T15:04:04;8.00;99.90
15364;DHT22;7781;49.690;6.472;2023-11-18T15:06:33;8.00;99.90
15364;DHT22;7781;49.690;6.472;2023-11-18T15:09:04;8.00;99.90
15364;DHT22;7781;49.690;6.472;2023-11-18T15:11:38;8.00;99.90
15364;DHT22;7781;49.690;6.472;2023-11-18T15:14:08;8.00;99.90
15364;DHT22;7781;49.690;6.472;2023-11-18T15:16:40;8.00;99.90
15364;DHT22;7781;49.690;6.472;2023-11-18T15:19:17;8.00;99.90
15364;DHT22;7781;49.690;6.472;2023-11-18T15:21:46;8.00;99.90
15364;DHT22;7781;49.690;6.472;2023-11-18T15:24:16;8.00;99.90
15364;DHT22;7781;49.690;6.472;2023-11-18T15:26:45;8.00;99.90
15364;DHT22;7781;49.690;6.472;2023-11-18T15:29:17;8.00;99.90
15364;DHT22;7781;49.690;6.472;2023-11-18T15:31:47;8.00;99.90
15364;DHT22;7781;49.690;6.472;2023-11-18T15:34:18;8.00;99.90
15364;DHT22;7781;49.690;6.472;2023-11-18T15:36:47;8.10;99.90
15364;DHT22;7781;49.690;6.472;2023-11-18T15:39:15;8.10;99.90
15364;DHT22;7781;49.690;6.472;2023-11-18T15:41:45;8.10;99.90
15364;DHT22;7781;49.690;6.472;2023-11-18T15:44:16;8.10;99.90
15364;DHT22;7781;49.690;6.472;2023-11-18T15:46:47;8.10;99.90
15364;DHT22;7781;49.690;6.472;2023-11-18T15:49:20;8.10;99.90
15364;DHT22;7781;49.690;6.472;2023-11-18T15:51:49;8.10;99.90
15364;DHT22;7781;49.690;6.472;2023-11-18T15:54:19;8.10;99.90
15364;DHT22;7781;49.690;6.472;2023-11-18T15:56:48;8.10;99.90
15364;DHT22;7781;49.690;6.472;2023-11-18T15:59:16;8.10;99.90
15364;DHT22;7781;49.690;6.472;2023-11-18T16:01:45;8.00;99.90
15364;DHT22;7781;49.690;6.472;2023-11-18T16:04:13;8.00;99.90
15364;DHT22;7781;49.690;6.472;2023-11-18T16:06:45;8.00;99.90
15364;DHT22;7781;49.690;6.472;2023-11-18T16:09:13;8.00;99.90
15364;DHT22;7781;49.690;6.472;2023-11-18T16:11:42;8.10;99.90
15364;DHT22;7781;49.690;6.472;2023-11-18T16:14:10;8.10;99.90
15364;DHT22;7781;49.690;6.472;2023-11-18T16:16:39;8.10;99.90
15364;DHT22;7781;49.690;6.472;2023-11-18T16:19:07;8.10;99.90
15364;DHT22;7781;49.690;6.472;2023-11-18T16:21:36;8.10;99.90
15364;DHT22;7781;49.690;6.472;2023-11-18T16:24:08;8.10;99.90
15364;DHT22;7781;49.690;6.472;2023-11-18T16:26:38;8.10;99.90
15364;DHT22;7781;49.690;6.472;2023-11-18T16:29:07;8.10;99.90
15364;DHT22;7781;49.690;6.472;2023-11-18T16:31:36;8.10;99.90